createdAt,value
2018-02-13T00:00:58.953Z,111.9
2018-02-13T00:10:58.824Z,109.7
2018-02-13T00:20:58.958Z,119.1
2018-02-13T00:30:58.805Z,129.8
2018-02-13T00:40:58.630Z,124.9
2018-02-13T00:50:59.427Z,128.5
2018-02-13T01:00:59.245Z,127.7
2018-02-13T01:10:59.105Z,133.1
2018-02-13T01:20:59.048Z,137.3
2018-02-13T01:30:58.837Z,138.8
2018-02-13T01:40:58.555Z,136.4
2018-02-13T01:50:59.417Z,132.4
2018-02-13T02:00:59.294Z,118.5
2018-02-13T02:10:59.095Z,89.8
2018-02-13T02:20:59.084Z,79.6
2018-02-13T02:30:58.878Z,67.0
2018-02-13T02:40:58.602Z,40.4
2018-02-13T02:50:59.394Z,25.6
2018-02-13T03:00:59.194Z,26.6
2018-02-13T03:10:58.983Z,25.1
2018-02-13T03:20:58.892Z,28.2
2018-02-13T03:30:58.699Z,32.7
2018-02-13T03:40:59.516Z,37.7
2018-02-13T03:50:59.315Z,38.0
2018-02-13T04:00:59.135Z,38.8
2018-02-13T04:10:58.946Z,38.7
2018-02-13T04:20:58.816Z,43.4
2018-02-13T04:30:58.621Z,53.3
2018-02-13T04:40:59.446Z,55.2
2018-02-13T04:50:59.253Z,56.7
2018-02-13T05:00:59.079Z,59.0
2018-02-13T05:10:58.805Z,53.5
2018-02-13T05:20:58.693Z,55.7
2018-02-13T05:30:59.124Z,56.6
2018-02-13T05:40:58.895Z,55.3
2018-02-13T05:50:58.720Z,53.8
2018-02-13T06:00:58.550Z,53.7
2018-02-13T06:10:59.218Z,53.6
2018-02-13T06:20:59.117Z,53.2
2018-02-13T06:30:58.892Z,52.6
2018-02-13T06:40:58.638Z,51.1
2018-02-13T06:50:59.416Z,51.8
2018-02-13T07:00:59.193Z,49.2
2018-02-13T07:10:58.989Z,50.3
2018-02-13T07:20:58.835Z,49.3
2018-02-13T07:30:58.618Z,51.3
2018-02-13T07:40:59.453Z,49.7
2018-02-13T07:50:59.264Z,48.6
2018-02-13T08:00:59.100Z,50.1
2018-02-13T08:10:58.881Z,48.6
2018-02-13T08:20:58.881Z,49.4
2018-02-13T08:30:58.675Z,50.1
2018-02-13T08:40:59.463Z,48.9
2018-02-13T08:50:59.164Z,42.7
2018-02-13T09:00:58.965Z,41.5
2018-02-13T09:10:58.664Z,40.7
2018-02-13T09:20:58.548Z,54.5
2018-02-13T09:30:59.316Z,47.0
2018-02-13T09:40:59.120Z,50.2
2018-02-13T09:50:58.923Z,52.7
2018-02-13T10:00:58.722Z,48.9
2018-02-13T10:10:59.361Z,46.7
2018-02-13T10:20:59.147Z,43.6
2018-02-13T10:30:58.796Z,43.5
2018-02-13T10:40:58.503Z,44.4
2018-02-13T10:50:59.262Z,43.6
2018-02-13T11:00:59.098Z,43.1
2018-02-13T11:10:58.942Z,46.0
2018-02-13T11:20:58.910Z,44.2
2018-02-13T11:30:58.722Z,43.0
2018-02-13T11:40:59.455Z,43.5
2018-02-13T11:50:59.326Z,40.2
2018-02-13T12:00:59.148Z,43.2
2018-02-13T12:10:58.903Z,43.6
2018-02-13T12:20:58.806Z,42.6
2018-02-13T12:30:58.604Z,45.1
2018-02-13T12:40:59.418Z,45.9
2018-02-13T12:50:59.227Z,44.5
2018-02-13T13:00:59.032Z,48.2
2018-02-13T13:10:58.808Z,44.3
2018-02-13T13:20:58.722Z,43.5
2018-02-13T13:30:58.441Z,42.8
2018-02-13T13:40:59.243Z,43.6
2018-02-13T13:50:59.029Z,41.5
2018-02-13T14:00:58.838Z,39.0
2018-02-13T14:10:58.633Z,41.4
2018-02-13T14:20:58.543Z,41.0
2018-02-13T14:30:59.309Z,42.6
2018-02-13T14:40:59.077Z,40.6
2018-02-13T14:50:58.914Z,38.6
2018-02-13T15:00:58.687Z,37.5
2018-02-13T15:10:59.383Z,42.8
2018-02-13T15:20:59.283Z,43.3
2018-02-13T15:30:59.070Z,45.1
2018-02-13T15:40:58.879Z,46.3
2018-02-13T15:50:58.683Z,45.5
2018-02-13T16:00:59.511Z,48.1
2018-02-13T16:10:59.328Z,49.8
2018-02-13T16:20:59.304Z,52.6
2018-02-13T16:30:59.114Z,55.2
2018-02-13T16:40:58.801Z,58.3
2018-02-13T16:50:58.618Z,56.1
2018-02-13T17:00:59.474Z,54.1
2018-02-13T17:10:59.221Z,53.1
2018-02-13T17:20:59.196Z,47.1
2018-02-13T17:30:59.450Z,54.5
2018-02-13T17:40:59.554Z,46.6
2018-02-13T17:50:59.346Z,46.3
2018-02-13T18:00:59.159Z,45.6
2018-02-13T18:10:58.995Z,46.5
2018-02-13T18:20:59.002Z,41.0
2018-02-13T18:30:58.817Z,46.9
2018-02-13T18:40:58.634Z,57.7
2018-02-13T18:50:59.417Z,51.2
2018-02-13T19:00:59.240Z,48.8
2018-02-13T19:10:59.042Z,62.5
2018-02-13T19:20:59.109Z,57.9
2018-02-13T19:30:59.119Z,57.5
2018-02-13T19:40:59.509Z,65.5
2018-02-13T19:50:59.473Z,65.4
2018-02-13T20:00:59.444Z,61.6
2018-02-13T20:10:59.812Z,65.7
2018-02-13T20:20:58.878Z,64.0
2018-02-13T20:30:58.911Z,61.9
2018-02-13T20:40:58.898Z,61.9
2018-02-13T20:50:58.828Z,65.7
2018-02-13T21:00:58.767Z,67.8
2018-02-13T21:10:58.722Z,61.4
2018-02-13T21:20:58.930Z,58.3
2018-02-13T21:30:59.006Z,52.5
2018-02-13T21:40:58.883Z,48.9
2018-02-13T21:50:58.668Z,49.6
2018-02-13T22:00:59.465Z,46.8
2018-02-13T22:10:59.280Z,44.1
2018-02-13T22:20:59.184Z,42.0
2018-02-13T22:30:58.990Z,48.6
2018-02-13T22:40:58.761Z,42.7
2018-02-13T22:50:58.598Z,43.8
2018-02-13T23:00:59.396Z,42.8
2018-02-13T23:10:59.203Z,50.7
2018-02-13T23:20:59.109Z,48.1
2018-02-13T23:30:58.929Z,41.9
2018-02-13T23:40:58.715Z,43.9
2018-02-13T23:50:59.539Z,42.7
